sensor_id;sensor_type;location;lat;lon;timestamp;temperature;humidity
42227;DHT22;27892;52.378;13.122;2024-01-15T00:01:54;6.20;66.80
42227;DHT22;27892;52.378;13.122;2024-01-15T00:04:19;6.20;66.50
42227;DHT22;27892;52.378;13.122;2024-01-15T00:06:45;6.10;66.90
42227;DHT22;27892;52.378;13.122;2024-01-15T00:09:11;6.10;67.00
42227;DHT22;27892;52.378;13.122;2024-01-15T00:11:36;6.10;67.30
42227;DHT22;27892;52.378;13.122;2024-01-15T00:14:02;6.10;67.50
42227;DHT22;27892;52.378;13.122;2024-01-15T00:16:28;6.10;67.00
42227;DHT22;27892;52.378;13.122;2024-01-15T00:18:54;6.10;66.80
42227;DHT22;27892;52.378;13.122;2024-01-15T00:21:20;6.10;67.10
42227;DHT22;27892;52.378;13.122;2024-01-15T00:23:45;6.20;66.80
42227;DHT22;27892;52.378;13.122;2024-01-15T00:26:11;6.20;67.00
42227;DHT22;27892;52.378;13.122;2024-01-15T00:28:37;6.20;66.70
42227;DHT22;27892;52.378;13.122;2024-01-15T00:31:04;6.20;67.10
42227;DHT22;27892;52.378;13.122;2024-01-15T00:33:30;6.20;67.30
42227;DHT22;27892;52.378;13.122;2024-01-15T00:35:56;6.20;66.30
42227;DHT22;27892;52.378;13.122;2024-01-15T00:38:21;6.30;66.70
42227;DHT22;27892;52.378;13.122;2024-01-15T00:40:47;6.20;66.20
42227;DHT22;27892;52.378;13.122;2024-01-15T00:43:13;6.20;66.50
42227;DHT22;27892;52.378;13.122;2024-01-15T00:45:39;6.30;66.40
42227;DHT22;27892;52.378;13.122;2024-01-15T00:48:05;6.30;66.30
42227;DHT22;27892;52.378;13.122;2024-01-15T00:50:30;6.30;66.10
42227;DHT22;27892;52.378;13.122;2024-01-15T00:52:56;6.30;66.40
42227;DHT22;27892;52.378;13.122;2024-01-15T00:55:22;6.30;65.80
42227;DHT22;27892;52.378;13.122;2024-01-15T00:57:47;6.30;65.50
42227;DHT22;27892;52.378;13.122;2024-01-15T01:00:13;6.30;65.40
42227;DHT22;27892;52.378;13.122;2024-01-15T01:02:39;6.30;65.40
42227;DHT22;27892;52.378;13.122;2024-01-15T01:05:05;6.30;65.60
42227;DHT22;27892;52.378;13.122;2024-01-15T01:07:31;6.30;65.50
42227;DHT22;27892;52.378;13.122;2024-01-15T01:09:56;6.30;65.40
42227;DHT22;27892;52.378;13.122;2024-01-15T01:12:22;6.30;65.60
42227;DHT22;27892;52.378;13.122;2024-01-15T01:14:48;6.30;64.90
42227;DHT22;27892;52.378;13.122;2024-01-15T01:17:13;6.20;64.80
42227;DHT22;27892;52.378;13.122;2024-01-15T01:19:39;6.20;64.80
42227;DHT22;27892;52.378;13.122;2024-01-15T01:22:05;6.10;65.10
42227;DHT22;27892;52.378;13.122;2024-01-15T01:24:30;6.20;65.20
42227;DHT22;27892;52.378;13.122;2024-01-15T01:26:56;6.10;65.10
42227;DHT22;27892;52.378;13.122;2024-01-15T01:29:22;6.10;65.40
42227;DHT22;27892;52.378;13.122;2024-01-15T01:31:48;6.10;66.00
42227;DHT22;27892;52.378;13.122;2024-01-15T01:34:15;6.00;65.80
42227;DHT22;27892;52.378;13.122;2024-01-15T01:36:42;6.00;66.10
42227;DHT22;27892;52.378;13.122;2024-01-15T01:39:08;6.00;66.20
42227;DHT22;27892;52.378;13.122;2024-01-15T01:41:34;5.90;66.60
42227;DHT22;27892;52.378;13.122;2024-01-15T01:44:00;5.80;66.90
42227;DHT22;27892;52.378;13.122;2024-01-15T01:46:27;5.90;67.20
42227;DHT22;27892;52.378;13.122;2024-01-15T01:48:54;5.90;67.20
42227;DHT22;27892;52.378;13.122;2024-01-15T01:51:22;5.90;67.60
42227;DHT22;27892;52.378;13.122;2024-01-15T01:53:49;6.00;67.60
42227;DHT22;27892;52.378;13.122;2024-01-15T01:56:15;5.90;67.60
42227;DHT22;27892;52.378;13.122;2024-01-15T01:58:42;5.90;67.60
42227;DHT22;27892;52.378;13.122;2024-01-15T02:01:08;5.80;67.00
42227;DHT22;27892;52.378;13.122;2024-01-15T02:03:34;5.70;67.20
42227;DHT22;27892;52.378;13.122;2024-01-15T02:06:00;5.70;67.40
42227;DHT22;27892;52.378;13.122;2024-01-15T02:08:26;5.70;67.40
42227;DHT22;27892;52.378;13.122;2024-01-15T02:10:52;5.70;67.30
42227;DHT22;27892;52.378;13.122;2024-01-15T02:13:20;5.80;67.60
42227;DHT22;27892;52.378;13.122;2024-01-15T02:15:46;5.80;67.30
42227;DHT22;27892;52.378;13.122;2024-01-15T02:18:12;5.90;66.90
42227;DHT22;27892;52.378;13.122;2024-01-15T02:20:37;5.80;67.10
42227;DHT22;27892;52.378;13.122;2024-01-15T02:23:12;5.80;66.90
42227;DHT22;27892;52.378;13.122;2024-01-15T02:25:41;5.90;66.80
42227;DHT22;27892;52.378;13.122;2024-01-15T02:28:11;5.80;66.20
42227;DHT22;27892;52.378;13.122;2024-01-15T02:30:38;5.70;65.70
42227;DHT22;27892;52.378;13.122;2024-01-15T02:33:07;5.60;66.50
42227;DHT22;27892;52.378;13.122;2024-01-15T02:35:34;5.60;66.00
42227;DHT22;27892;52.378;13.122;2024-01-15T02:38:05;5.60;66.20
42227;DHT22;27892;52.378;13.122;2024-01-15T02:40:31;5.50;66.30
42227;DHT22;27892;52.378;13.122;2024-01-15T02:42:58;5.50;66.50
42227;DHT22;27892;52.378;13.122;2024-01-15T02:45:23;5.40;66.40
42227;DHT22;27892;52.378;13.122;2024-01-15T02:47:49;5.50;66.90
42227;DHT22;27892;52.378;13.122;2024-01-15T02:50:15;5.60;66.00
42227;DHT22;27892;52.378;13.122;2024-01-15T02:52:41;5.60;66.20
42227;DHT22;27892;52.378;13.122;2024-01-15T02:55:08;5.50;66.00
42227;DHT22;27892;52.378;13.122;2024-01-15T02:57:33;5.50;65.90
42227;DHT22;27892;52.378;13.122;2024-01-15T02:59:59;5.40;65.50
42227;DHT22;27892;52.378;13.122;2024-01-15T03:02:25;5.40;66.10
42227;DHT22;27892;52.378;13.122;2024-01-15T03:04:51;5.50;66.00
42227;DHT22;27892;52.378;13.122;2024-01-15T03:07:17;5.50;65.50
42227;DHT22;27892;52.378;13.122;2024-01-15T03:09:42;5.50;65.60
42227;DHT22;27892;52.378;13.122;2024-01-15T03:12:08;5.50;65.40
42227;DHT22;27892;52.378;13.122;2024-01-15T03:14:34;5.50;65.50
42227;DHT22;27892;52.378;13.122;2024-01-15T03:17:00;5.60;65.60
42227;DHT22;27892;52.378;13.122;2024-01-15T03:19:26;5.50;65.10
42227;DHT22;27892;52.378;13.122;2024-01-15T03:21:52;5.40;64.60
42227;DHT22;27892;52.378;13.122;2024-01-15T03:24:17;5.40;64.80
42227;DHT22;27892;52.378;13.122;2024-01-15T03:26:43;5.50;65.40
42227;DHT22;27892;52.378;13.122;2024-01-15T03:29:09;5.60;65.30
42227;DHT22;27892;52.378;13.122;2024-01-15T03:31:34;5.60;65.20
42227;DHT22;27892;52.378;13.122;2024-01-15T03:34:00;5.70;65.40
42227;DHT22;27892;52.378;13.122;2024-01-15T03:36:26;5.70;64.90
42227;DHT22;27892;52.378;13.122;2024-01-15T03:38:52;5.80;65.20
42227;DHT22;27892;52.378;13.122;2024-01-15T03:41:17;5.70;64.30
42227;DHT22;27892;52.378;13.122;2024-01-15T03:43:43;5.70;64.50
42227;DHT22;27892;52.378;13.122;2024-01-15T03:46:08;5.80;64.50
42227;DHT22;27892;52.378;13.122;2024-01-15T03:48:34;5.80;63.70
42227;DHT22;27892;52.378;13.122;2024-01-15T03:51:00;5.80;63.60
42227;DHT22;27892;52.378;13.122;2024-01-15T03:53:25;5.80;63.90
42227;DHT22;27892;52.378;13.122;2024-01-15T03:55:51;5.80;63.60
42227;DHT22;27892;52.378;13.122;2024-01-15T03:58:17;5.90;64.00
42227;DHT22;27892;52.378;13.122;2024-01-15T04:00:43;5.90;63.50
42227;DHT22;27892;52.378;13.122;2024-01-15T04:03:09;5.90;63.70
42227;DHT22;27892;52.378;13.122;2024-01-15T04:05:35;6.00;63.80
42227;DHT22;27892;52.378;13.122;2024-01-15T04:08:00;6.00;63.40
42227;DHT22;27892;52.378;13.122;2024-01-15T04:10:26;6.00;63.10
42227;DHT22;27892;52.378;13.122;2024-01-15T04:12:52;6.00;63.20
42227;DHT22;27892;52.378;13.122;2024-01-15T04:15:17;5.90;62.60
42227;DHT22;27892;52.378;13.122;2024-01-15T04:17:43;6.00;63.20
42227;DHT22;27892;52.378;13.122;2024-01-15T04:20:09;6.10;63.00
42227;DHT22;27892;52.378;13.122;2024-01-15T04:22:35;6.10;62.60
42227;DHT22;27892;52.378;13.122;2024-01-15T04:25:01;6.10;62.40
42227;DHT22;27892;52.378;13.122;2024-01-15T04:27:27;6.10;62.60
42227;DHT22;27892;52.378;13.122;2024-01-15T04:29:53;6.10;62.60
42227;DHT22;27892;52.378;13.122;2024-01-15T04:32:19;6.10;62.10
42227;DHT22;27892;52.378;13.122;2024-01-15T04:34:45;6.00;62.00
42227;DHT22;27892;52.378;13.122;2024-01-15T04:37:11;6.00;62.10
42227;DHT22;27892;52.378;13.122;2024-01-15T04:39:36;6.10;62.00
42227;DHT22;27892;52.378;13.122;2024-01-15T04:42:03;6.10;62.10
42227;DHT22;27892;52.378;13.122;2024-01-15T04:44:29;6.10;61.60
42227;DHT22;27892;52.378;13.122;2024-01-15T04:46:54;6.10;61.20
42227;DHT22;27892;52.378;13.122;2024-01-15T04:49:20;6.10;61.90
42227;DHT22;27892;52.378;13.122;2024-01-15T04:51:46;6.10;60.60
42227;DHT22;27892;52.378;13.122;2024-01-15T04:54:12;6.10;61.10
42227;DHT22;27892;52.378;13.122;2024-01-15T04:56:37;6.00;61.10
42227;DHT22;27892;52.378;13.122;2024-01-15T04:59:03;6.00;61.60
42227;DHT22;27892;52.378;13.122;2024-01-15T05:01:32;6.00;61.10
42227;DHT22;27892;52.378;13.122;2024-01-15T05:03:58;6.10;61.10
42227;DHT22;27892;52.378;13.122;2024-01-15T05:06:24;6.10;61.50
42227;DHT22;27892;52.378;13.122;2024-01-15T05:08:50;6.10;61.30
42227;DHT22;27892;52.378;13.122;2024-01-15T05:11:16;6.10;61.30
42227;DHT22;27892;52.378;13.122;2024-01-15T05:13:41;6.20;61.40
42227;DHT22;27892;52.378;13.122;2024-01-15T05:16:07;6.10;61.20
42227;DHT22;27892;52.378;13.122;2024-01-15T05:18:33;6.10;61.30
42227;DHT22;27892;52.378;13.122;2024-01-15T05:20:59;6.10;61.20
42227;DHT22;27892;52.378;13.122;2024-01-15T05:23:24;6.20;61.20
42227;DHT22;27892;52.378;13.122;2024-01-15T05:25:50;6.20;60.90
42227;DHT22;27892;52.378;13.122;2024-01-15T05:28:15;6.20;60.50
42227;DHT22;27892;52.378;13.122;2024-01-15T05:30:41;6.10;61.20
42227;DHT22;27892;52.378;13.122;2024-01-15T05:33:07;6.10;60.90
42227;DHT22;27892;52.378;13.122;2024-01-15T05:35:33;6.10;61.00
42227;DHT22;27892;52.378;13.122;2024-01-15T05:37:59;6.20;61.20
42227;DHT22;27892;52.378;13.122;2024-01-15T05:40:25;6.10;60.50
42227;DHT22;27892;52.378;13.122;2024-01-15T05:42:50;6.10;61.00
42227;DHT22;27892;52.378;13.122;2024-01-15T05:45:16;6.20;60.90
42227;DHT22;27892;52.378;13.122;2024-01-15T05:47:42;6.20;61.90
42227;DHT22;27892;52.378;13.122;2024-01-15T05:50:09;6.20;61.20
42227;DHT22;27892;52.378;13.122;2024-01-15T05:52:36;6.20;61.20
42227;DHT22;27892;52.378;13.122;2024-01-15T05:55:01;6.10;61.50
42227;DHT22;27892;52.378;13.122;2024-01-15T05:57:27;6.10;61.90
42227;DHT22;27892;52.378;13.122;2024-01-15T05:59:53;6.10;62.20
42227;DHT22;27892;52.378;13.122;2024-01-15T06:02:19;6.10;62.30
42227;DHT22;27892;52.378;13.122;2024-01-15T06:04:45;6.20;62.10
42227;DHT22;27892;52.378;13.122;2024-01-15T06:07:10;6.10;62.20
42227;DHT22;27892;52.378;13.122;2024-01-15T06:09:36;6.20;62.10
42227;DHT22;27892;52.378;13.122;2024-01-15T06:12:02;6.20;62.60
42227;DHT22;27892;52.378;13.122;2024-01-15T06:14:27;6.20;61.70
42227;DHT22;27892;52.378;13.122;2024-01-15T06:16:53;6.20;61.30
42227;DHT22;27892;52.378;13.122;2024-01-15T06:19:19;6.20;61.60
42227;DHT22;27892;52.378;13.122;2024-01-15T06:21:44;6.30;61.40
42227;DHT22;27892;52.378;13.122;2024-01-15T06:24:10;6.30;61.30
42227;DHT22;27892;52.378;13.122;2024-01-15T06:26:36;6.30;61.20
42227;DHT22;27892;52.378;13.122;2024-01-15T06:29:01;6.20;61.00
42227;DHT22;27892;52.378;13.122;2024-01-15T06:31:28;6.20;61.30
42227;DHT22;27892;52.378;13.122;2024-01-15T06:33:55;6.20;62.20
42227;DHT22;27892;52.378;13.122;2024-01-15T06:36:21;6.20;61.90
42227;DHT22;27892;52.378;13.122;2024-01-15T06:38:47;6.20;62.40
42227;DHT22;27892;52.378;13.122;2024-01-15T06:41:13;6.10;62.50
42227;DHT22;27892;52.378;13.122;2024-01-15T06:43:50;6.10;62.10
42227;DHT22;27892;52.378;13.122;2024-01-15T06:46:22;6.10;62.30
42227;DHT22;27892;52.378;13.122;2024-01-15T06:48:48;6.20;62.30
42227;DHT22;27892;52.378;13.122;2024-01-15T06:51:15;6.20;61.90
42227;DHT22;27892;52.378;13.122;2024-01-15T06:53:41;6.20;61.70
42227;DHT22;27892;52.378;13.122;2024-01-15T06:56:07;6.20;61.80
42227;DHT22;27892;52.378;13.122;2024-01-15T06:58:33;6.20;61.30
42227;DHT22;27892;52.378;13.122;2024-01-15T07:00:59;6.20;61.30
42227;DHT22;27892;52.378;13.122;2024-01-15T07:03:25;6.20;60.90
42227;DHT22;27892;52.378;13.122;2024-01-15T07:05:50;6.20;61.40
42227;DHT22;27892;52.378;13.122;2024-01-15T07:08:16;6.20;61.30
42227;DHT22;27892;52.378;13.122;2024-01-15T07:10:42;6.20;60.90
42227;DHT22;27892;52.378;13.122;2024-01-15T07:13:08;6.20;60.80
42227;DHT22;27892;52.378;13.122;2024-01-15T07:15:34;6.20;60.90
42227;DHT22;27892;52.378;13.122;2024-01-15T07:17:59;6.20;60.90
42227;DHT22;27892;52.378;13.122;2024-01-15T07:20:25;6.20;61.30
42227;DHT22;27892;52.378;13.122;2024-01-15T07:22:51;6.20;60.80
42227;DHT22;27892;52.378;13.122;2024-01-15T07:25:16;6.20;61.00
42227;DHT22;27892;52.378;13.122;2024-01-15T07:27:42;6.30;60.90
42227;DHT22;27892;52.378;13.122;2024-01-15T07:30:11;6.30;60.90
42227;DHT22;27892;52.378;13.122;2024-01-15T07:32:37;6.30;60.40
42227;DHT22;27892;52.378;13.122;2024-01-15T07:35:03;6.20;60.70
42227;DHT22;27892;52.378;13.122;2024-01-15T07:37:29;6.30;60.80
42227;DHT22;27892;52.378;13.122;2024-01-15T07:39:54;6.30;61.20
42227;DHT22;27892;52.378;13.122;2024-01-15T07:42:20;6.30;60.80
42227;DHT22;27892;52.378;13.122;2024-01-15T07:44:46;6.30;60.70
42227;DHT22;27892;52.378;13.122;2024-01-15T07:47:12;6.20;60.50
42227;DHT22;27892;52.378;13.122;2024-01-15T07:49:38;6.30;60.70
42227;DHT22;27892;52.378;13.122;2024-01-15T07:52:04;6.30;60.90
42227;DHT22;27892;52.378;13.122;2024-01-15T07:54:31;6.30;61.00
42227;DHT22;27892;52.378;13.122;2024-01-15T07:57:00;6.40;60.90
42227;DHT22;27892;52.378;13.122;2024-01-15T07:59:26;6.30;60.70
42227;DHT22;27892;52.378;13.122;2024-01-15T08:01:52;6.30;60.50
42227;DHT22;27892;52.378;13.122;2024-01-15T08:04:19;6.30;60.80
42227;DHT22;27892;52.378;13.122;2024-01-15T08:06:45;6.30;60.70
42227;DHT22;27892;52.378;13.122;2024-01-15T08:09:11;6.40;60.90
42227;DHT22;27892;52.378;13.122;2024-01-15T08:11:44;6.40;60.90
42227;DHT22;27892;52.378;13.122;2024-01-15T08:14:10;6.40;61.40
42227;DHT22;27892;52.378;13.122;2024-01-15T08:16:37;6.50;61.30
42227;DHT22;27892;52.378;13.122;2024-01-15T08:19:03;6.50;61.30
42227;DHT22;27892;52.378;13.122;2024-01-15T08:21:29;6.50;61.10
42227;DHT22;27892;52.378;13.122;2024-01-15T08:24:04;6.50;61.20
42227;DHT22;27892;52.378;13.122;2024-01-15T08:26:30;6.50;60.50
42227;DHT22;27892;52.378;13.122;2024-01-15T08:28:57;6.50;60.30
42227;DHT22;27892;52.378;13.122;2024-01-15T08:31:23;6.40;60.60
42227;DHT22;27892;52.378;13.122;2024-01-15T08:33:49;6.40;61.00
42227;DHT22;27892;52.378;13.122;2024-01-15T08:36:14;6.70;60.80
42227;DHT22;27892;52.378;13.122;2024-01-15T08:38:40;6.80;60.20
42227;DHT22;27892;52.378;13.122;2024-01-15T08:41:06;7.00;60.60
42227;DHT22;27892;52.378;13.122;2024-01-15T08:43:34;6.90;59.80
42227;DHT22;27892;52.378;13.122;2024-01-15T08:45:59;6.90;59.90
42227;DHT22;27892;52.378;13.122;2024-01-15T08:48:26;6.90;59.80
42227;DHT22;27892;52.378;13.122;2024-01-15T08:50:54;6.90;59.70
42227;DHT22;27892;52.378;13.122;2024-01-15T08:53:20;6.90;60.10
42227;DHT22;27892;52.378;13.122;2024-01-15T08:55:47;6.90;60.40
42227;DHT22;27892;52.378;13.122;2024-01-15T08:58:13;6.80;59.50
42227;DHT22;27892;52.378;13.122;2024-01-15T09:00:39;6.80;59.90
42227;DHT22;27892;52.378;13.122;2024-01-15T09:03:05;6.70;60.00
42227;DHT22;27892;52.378;13.122;2024-01-15T09:05:31;6.70;60.30
42227;DHT22;27892;52.378;13.122;2024-01-15T09:07:57;6.70;60.20
42227;DHT22;27892;52.378;13.122;2024-01-15T09:10:22;6.70;60.30
42227;DHT22;27892;52.378;13.122;2024-01-15T09:12:48;6.70;60.40
42227;DHT22;27892;52.378;13.122;2024-01-15T09:15:17;6.70;60.60
42227;DHT22;27892;52.378;13.122;2024-01-15T09:17:43;6.70;60.20
42227;DHT22;27892;52.378;13.122;2024-01-15T09:20:09;6.80;60.40
42227;DHT22;27892;52.378;13.122;2024-01-15T09:22:38;6.80;60.50
42227;DHT22;27892;52.378;13.122;2024-01-15T09:25:04;6.70;59.70
42227;DHT22;27892;52.378;13.122;2024-01-15T09:27:30;6.70;60.20
42227;DHT22;27892;52.378;13.122;2024-01-15T09:29:56;6.70;60.60
42227;DHT22;27892;52.378;13.122;2024-01-15T09:32:22;6.70;60.40
42227;DHT22;27892;52.378;13.122;2024-01-15T09:34:48;6.70;60.40
42227;DHT22;27892;52.378;13.122;2024-01-15T09:37:14;6.80;60.70
42227;DHT22;27892;52.378;13.122;2024-01-15T09:39:40;6.80;60.30
42227;DHT22;27892;52.378;13.122;2024-01-15T09:42:07;6.90;60.80
42227;DHT22;27892;52.378;13.122;2024-01-15T09:44:33;6.90;60.40
42227;DHT22;27892;52.378;13.122;2024-01-15T09:46:59;6.90;60.20
42227;DHT22;27892;52.378;13.122;2024-01-15T09:49:25;6.90;60.60
42227;DHT22;27892;52.378;13.122;2024-01-15T09:51:51;6.90;60.50
42227;DHT22;27892;52.378;13.122;2024-01-15T09:54:17;6.90;60.00
42227;DHT22;27892;52.378;13.122;2024-01-15T09:56:47;6.90;60.00
42227;DHT22;27892;52.378;13.122;2024-01-15T09:59:19;7.00;60.10
42227;DHT22;27892;52.378;13.122;2024-01-15T10:01:46;7.00;60.10
42227;DHT22;27892;52.378;13.122;2024-01-15T10:04:13;6.90;60.00
42227;DHT22;27892;52.378;13.122;2024-01-15T10:06:44;7.00;59.80
42227;DHT22;27892;52.378;13.122;2024-01-15T10:09:12;7.00;60.00
42227;DHT22;27892;52.378;13.122;2024-01-15T10:11:44;6.80;59.60
42227;DHT22;27892;52.378;13.122;2024-01-15T10:14:11;6.90;60.50
42227;DHT22;27892;52.378;13.122;2024-01-15T10:16:40;7.10;60.70
42227;DHT22;27892;52.378;13.122;2024-01-15T10:19:06;7.20;60.00
42227;DHT22;27892;52.378;13.122;2024-01-15T10:21:32;7.30;60.20
42227;DHT22;27892;52.378;13.122;2024-01-15T10:24:02;7.20;59.00
42227;DHT22;27892;52.378;13.122;2024-01-15T10:26:28;7.10;59.40
42227;DHT22;27892;52.378;13.122;2024-01-15T10:28:54;7.10;59.50
42227;DHT22;27892;52.378;13.122;2024-01-15T10:31:20;7.10;59.90
42227;DHT22;27892;52.378;13.122;2024-01-15T10:33:48;7.30;59.90
42227;DHT22;27892;52.378;13.122;2024-01-15T10:36:15;7.40;59.40
42227;DHT22;27892;52.378;13.122;2024-01-15T10:38:45;7.60;59.20
42227;DHT22;27892;52.378;13.122;2024-01-15T10:41:11;7.60;59.20
42227;DHT22;27892;52.378;13.122;2024-01-15T10:43:37;7.70;59.00
42227;DHT22;27892;52.378;13.122;2024-01-15T10:46:03;7.70;59.10
42227;DHT22;27892;52.378;13.122;2024-01-15T10:48:30;7.70;59.20
42227;DHT22;27892;52.378;13.122;2024-01-15T10:50:59;7.80;59.00
42227;DHT22;27892;52.378;13.122;2024-01-15T10:53:25;7.80;58.70
42227;DHT22;27892;52.378;13.122;2024-01-15T10:55:52;7.80;58.70
42227;DHT22;27892;52.378;13.122;2024-01-15T10:58:18;7.80;58.60
42227;DHT22;27892;52.378;13.122;2024-01-15T11:00:45;7.80;58.50
42227;DHT22;27892;52.378;13.122;2024-01-15T11:03:11;7.70;58.60
42227;DHT22;27892;52.378;13.122;2024-01-15T11:05:38;7.70;59.40
42227;DHT22;27892;52.378;13.122;2024-01-15T11:08:06;7.60;58.90
42227;DHT22;27892;52.378;13.122;2024-01-15T11:10:47;7.60;59.90
42227;DHT22;27892;52.378;13.122;2024-01-15T11:21:23;8.00;62.10
42227;DHT22;27892;52.378;13.122;2024-01-15T11:23:53;8.30;62.10
42227;DHT22;27892;52.378;13.122;2024-01-15T11:28:58;8.60;60.70
42227;DHT22;27892;52.378;13.122;2024-01-15T11:31:30;8.50;60.80
42227;DHT22;27892;52.378;13.122;2024-01-15T11:34:15;8.30;60.40
42227;DHT22;27892;52.378;13.122;2024-01-15T11:37:00;8.10;59.40
42227;DHT22;27892;52.378;13.122;2024-01-15T11:41:59;7.70;60.80
42227;DHT22;27892;52.378;13.122;2024-01-15T11:44:26;7.70;61.10
42227;DHT22;27892;52.378;13.122;2024-01-15T11:46:58;7.60;61.30
42227;DHT22;27892;52.378;13.122;2024-01-15T11:52:04;7.70;61.40
42227;DHT22;27892;52.378;13.122;2024-01-15T11:54:33;7.60;60.40
42227;DHT22;27892;52.378;13.122;2024-01-15T11:57:04;7.50;60.30
42227;DHT22;27892;52.378;13.122;2024-01-15T11:59:33;7.50;61.10
42227;DHT22;27892;52.378;13.122;2024-01-15T12:01:59;7.40;60.90
42227;DHT22;27892;52.378;13.122;2024-01-15T12:04:25;7.20;60.90
42227;DHT22;27892;52.378;13.122;2024-01-15T12:06:52;7.20;61.80
42227;DHT22;27892;52.378;13.122;2024-01-15T12:09:21;7.20;62.10
42227;DHT22;27892;52.378;13.122;2024-01-15T12:11:52;7.30;61.50
42227;DHT22;27892;52.378;13.122;2024-01-15T12:14:21;7.00;61.70
42227;DHT22;27892;52.378;13.122;2024-01-15T12:16:47;7.00;62.40
42227;DHT22;27892;52.378;13.122;2024-01-15T12:19:15;7.10;61.90
42227;DHT22;27892;52.378;13.122;2024-01-15T12:21:41;7.00;61.90
42227;DHT22;27892;52.378;13.122;2024-01-15T12:24:10;6.90;62.30
42227;DHT22;27892;52.378;13.122;2024-01-15T12:26:35;7.00;62.70
42227;DHT22;27892;52.378;13.122;2024-01-15T12:29:02;7.00;62.30
42227;DHT22;27892;52.378;13.122;2024-01-15T12:31:29;7.10;62.70
42227;DHT22;27892;52.378;13.122;2024-01-15T12:33:56;7.10;62.90
42227;DHT22;27892;52.378;13.122;2024-01-15T12:36:21;7.10;62.90
42227;DHT22;27892;52.378;13.122;2024-01-15T12:38:47;7.00;63.20
42227;DHT22;27892;52.378;13.122;2024-01-15T12:41:13;6.90;63.60
42227;DHT22;27892;52.378;13.122;2024-01-15T12:43:39;6.80;63.80
42227;DHT22;27892;52.378;13.122;2024-01-15T12:46:06;6.70;64.40
42227;DHT22;27892;52.378;13.122;2024-01-15T12:48:31;6.80;64.90
42227;DHT22;27892;52.378;13.122;2024-01-15T12:50:57;6.80;64.80
42227;DHT22;27892;52.378;13.122;2024-01-15T12:53:23;6.80;64.90
42227;DHT22;27892;52.378;13.122;2024-01-15T12:55:49;6.80;65.00
42227;DHT22;27892;52.378;13.122;2024-01-15T12:58:14;6.80;64.60
42227;DHT22;27892;52.378;13.122;2024-01-15T13:00:40;6.80;65.30
42227;DHT22;27892;52.378;13.122;2024-01-15T13:03:06;6.70;64.30
42227;DHT22;27892;52.378;13.122;2024-01-15T13:05:32;6.70;64.60
42227;DHT22;27892;52.378;13.122;2024-01-15T13:07:59;6.60;64.20
42227;DHT22;27892;52.378;13.122;2024-01-15T13:10:25;6.60;65.10
42227;DHT22;27892;52.378;13.122;2024-01-15T13:12:51;6.70;64.80
42227;DHT22;27892;52.378;13.122;2024-01-15T13:15:16;6.60;64.40
42227;DHT22;27892;52.378;13.122;2024-01-15T13:17:42;6.40;64.90
42227;DHT22;27892;52.378;13.122;2024-01-15T13:20:09;6.50;65.80
42227;DHT22;27892;52.378;13.122;2024-01-15T13:22:36;6.40;65.00
42227;DHT22;27892;52.378;13.122;2024-01-15T13:25:04;6.40;65.10
42227;DHT22;27892;52.378;13.122;2024-01-15T13:27:32;6.40;65.30
42227;DHT22;27892;52.378;13.122;2024-01-15T13:30:00;6.40;65.60
42227;DHT22;27892;52.378;13.122;2024-01-15T13:32:27;6.40;65.70
42227;DHT22;27892;52.378;13.122;2024-01-15T13:34:55;6.50;65.50
42227;DHT22;27892;52.378;13.122;2024-01-15T13:37:21;6.50;65.30
42227;DHT22;27892;52.378;13.122;2024-01-15T13:39:46;6.50;65.50
42227;DHT22;27892;52.378;13.122;2024-01-15T13:42:12;6.40;65.20
42227;DHT22;27892;52.378;13.122;2024-01-15T13:44:37;6.50;65.70
42227;DHT22;27892;52.378;13.122;2024-01-15T13:47:03;6.40;65.50
42227;DHT22;27892;52.378;13.122;2024-01-15T13:49:30;6.40;65.70
42227;DHT22;27892;52.378;13.122;2024-01-15T13:51:56;6.40;65.90
42227;DHT22;27892;52.378;13.122;2024-01-15T13:54:22;6.40;66.00
42227;DHT22;27892;52.378;13.122;2024-01-15T13:56:48;6.30;65.90
42227;DHT22;27892;52.378;13.122;2024-01-15T13:59:15;6.40;66.20
42227;DHT22;27892;52.378;13.122;2024-01-15T14:01:42;6.30;66.30
42227;DHT22;27892;52.378;13.122;2024-01-15T14:04:07;6.30;66.10
42227;DHT22;27892;52.378;13.122;2024-01-15T14:06:33;6.30;65.80
42227;DHT22;27892;52.378;13.122;2024-01-15T14:08:59;6.30;65.50
42227;DHT22;27892;52.378;13.122;2024-01-15T14:11:24;6.30;65.60
42227;DHT22;27892;52.378;13.122;2024-01-15T14:13:50;6.30;65.60
42227;DHT22;27892;52.378;13.122;2024-01-15T14:16:16;6.30;65.40
42227;DHT22;27892;52.378;13.122;2024-01-15T14:18:42;6.30;65.40
42227;DHT22;27892;52.378;13.122;2024-01-15T14:21:07;6.30;65.40
42227;DHT22;27892;52.378;13.122;2024-01-15T14:23:33;6.30;65.60
42227;DHT22;27892;52.378;13.122;2024-01-15T14:25:58;6.30;65.30
42227;DHT22;27892;52.378;13.122;2024-01-15T14:28:24;6.30;65.60
42227;DHT22;27892;52.378;13.122;2024-01-15T14:30:50;6.30;65.80
42227;DHT22;27892;52.378;13.122;2024-01-15T14:33:16;6.40;65.70
42227;DHT22;27892;52.378;13.122;2024-01-15T14:35:42;6.40;65.60
42227;DHT22;27892;52.378;13.122;2024-01-15T14:38:08;6.40;65.30
42227;DHT22;27892;52.378;13.122;2024-01-15T14:40:34;6.30;65.60
42227;DHT22;27892;52.378;13.122;2024-01-15T14:43:01;6.30;65.50
42227;DHT22;27892;52.378;13.122;2024-01-15T14:45:27;6.30;65.40
42227;DHT22;27892;52.378;13.122;2024-01-15T14:47:53;6.20;65.70
42227;DHT22;27892;52.378;13.122;2024-01-15T14:50:19;6.20;66.20
42227;DHT22;27892;52.378;13.122;2024-01-15T14:52:45;6.20;66.20
42227;DHT22;27892;52.378;13.122;2024-01-15T14:55:11;6.20;66.60
42227;DHT22;27892;52.378;13.122;2024-01-15T14:57:37;6.20;66.70
42227;DHT22;27892;52.378;13.122;2024-01-15T15:00:05;6.10;66.50
42227;DHT22;27892;52.378;13.122;2024-01-15T15:02:34;6.10;66.90
42227;DHT22;27892;52.378;13.122;2024-01-15T15:05:01;6.00;67.00
42227;DHT22;27892;52.378;13.122;2024-01-15T15:07:27;6.00;67.10
42227;DHT22;27892;52.378;13.122;2024-01-15T15:09:52;6.00;67.20
42227;DHT22;27892;52.378;13.122;2024-01-15T15:12:18;6.00;67.20
42227;DHT22;27892;52.378;13.122;2024-01-15T15:14:46;5.90;67.40
42227;DHT22;27892;52.378;13.122;2024-01-15T15:17:12;5.90;67.30
42227;DHT22;27892;52.378;13.122;2024-01-15T15:19:38;5.90;67.50
42227;DHT22;27892;52.378;13.122;2024-01-15T15:22:06;5.90;67.70
42227;DHT22;27892;52.378;13.122;2024-01-15T15:24:36;6.00;67.50
42227;DHT22;27892;52.378;13.122;2024-01-15T15:27:02;6.00;67.60
42227;DHT22;27892;52.378;13.122;2024-01-15T15:29:28;6.10;67.90
42227;DHT22;27892;52.378;13.122;2024-01-15T15:31:54;6.10;67.30
42227;DHT22;27892;52.378;13.122;2024-01-15T15:34:20;6.10;67.40
42227;DHT22;27892;52.378;13.122;2024-01-15T15:36:45;6.00;67.30
42227;DHT22;27892;52.378;13.122;2024-01-15T15:39:11;5.90;67.50
42227;DHT22;27892;52.378;13.122;2024-01-15T15:41:37;5.90;68.10